Archival Weather

Snohomish County (Paine Fld)

Everett, Washington (KPAE)

Report from: Monday, November 20, 2023 10:53 AM PST
Current time: Sunday, February 25, 2024 2:13 PM PST

Current weather – Weather history – Daily summaries
Weather forecast

Temperature6.1°C (43.0°F)
Dew point1.1°C (34.0°F)
Winds Calm
Visibility10 mi. (16.1 km)
Clouds Sky clear
Altimeter30.50 in.Hg (1033 mB)
Relative humidity70 %
Density altitude-1,650 ft. (-503 m)
Sea-level pressure103.3 kPa (1033 mB, 30.51 in.Hg)
Remarks Automated weather observing station with precipitation discriminator
Flight conditions Visual Meteorological Conditions
Raw dataKPAE 201853Z 00000KT 10SM CLR 06/01 A3050 RMK AO2 SLP333 T00610011
An error has occurred. This application may no longer respond until reloaded. Reload 🗙